Time;durP1;ratioP1;P1;durP2;ratioP2;P2;SDS_P1;SDS_P2;PMS_P1;PMS_P2;Temp;Humidity;BMP_temperature;BMP_pressure;BME280_temperature;BME280_humidity;BME280_pressure;Samples;Min_cycle;Max_cycle;Signal;HPM_P1;HPM_P2
2020/12/14 00:01:36;;;;;;;8.50;6.40;;;;;;;7.21;77.94;96082.22;5076828;28;20475;-61
2020/12/14 00:04:02;;;;;;;6.70;6.10;;;;;;;7.22;78.56;96075.19;5077197;28;20923;-61
2020/12/14 00:06:27;;;;;;;6.87;6.27;;;;;;;7.16;78.04;96060.34;5090747;28;20416;-61
2020/12/14 00:08:53;;;;;;;6.40;5.80;;;;;;;7.14;77.76;96057.94;5097389;28;20226;-61
2020/12/14 00:11:18;;;;;;;6.93;6.37;;;;;;;7.03;78.27;96047.38;5093909;28;20169;-61
2020/12/14 00:13:46;;;;;;;7.47;6.87;;;;;;;6.96;78.64;96033.56;5081786;28;20175;-61
2020/12/14 00:16:11;;;;;;;6.57;6.03;;;;;;;6.89;78.67;96032.81;5076858;28;20255;-60
2020/12/14 00:18:37;;;;;;;7.83;7.03;;;;;;;6.87;78.57;96024.38;5076576;28;20491;-60
2020/12/14 00:21:02;;;;;;;6.63;6.00;;;;;;;6.83;78.98;96010.16;5076737;28;20645;-61
2020/12/14 00:23:27;;;;;;;8.00;7.30;;;;;;;6.76;80.12;96012.78;5076915;28;20621;-61
2020/12/14 00:25:53;;;;;;;7.30;6.70;;;;;;;6.76;80.69;96015.41;5083421;28;20648;-61
2020/12/14 00:28:18;;;;;;;7.50;6.73;;;;;;;6.71;81.41;96007.41;5082810;28;20218;-61
2020/12/14 00:30:43;;;;;;;7.53;6.93;;;;;;;6.76;81.02;96004.97;5077003;28;20186;-60
2020/12/14 00:33:09;;;;;;;6.57;5.90;;;;;;;6.80;80.91;96007.94;5076569;28;20523;-60
2020/12/14 00:35:34;;;;;;;7.57;6.87;;;;;;;6.81;81.31;96004.34;5076401;28;20175;-60
2020/12/14 00:38:01;;;;;;;7.20;6.60;;;;;;;6.81;80.85;95997.28;5076456;28;20246;-61
2020/12/14 00:40:29;;;;;;;6.97;6.23;;;;;;;6.82;80.83;96014.56;5093114;28;20201;-61
2020/12/14 00:42:56;;;;;;;7.47;6.67;;;;;;;6.72;81.54;96016.84;5096778;28;20408;-60
2020/12/14 00:45:21;;;;;;;6.30;5.80;;;;;;;6.75;81.92;96026.06;5095364;28;20837;-62
2020/12/14 00:47:46;;;;;;;6.80;5.60;;;;;;;6.74;80.91;96032.31;5094537;28;20412;-60
2020/12/14 00:50:12;;;;;;;7.37;6.50;;;;;;;6.69;81.67;96045.16;5093865;28;20235;-60
2020/12/14 00:52:37;;;;;;;7.00;6.03;;;;;;;6.74;81.33;96048.75;5075925;28;20254;-60
2020/12/14 00:55:04;;;;;;;6.47;5.87;;;;;;;6.62;82.14;96066.09;5076481;28;20171;-61
2020/12/14 00:57:29;;;;;;;7.17;6.57;;;;;;;6.53;82.60;96062.13;5075876;28;20170;-61
2020/12/14 00:59:55;;;;;;;7.83;7.13;;;;;;;6.61;81.67;96068.91;5075983;28;20444;-61
2020/12/14 01:02:22;;;;;;;7.30;6.60;;;;;;;6.60;82.38;96062.06;5076054;28;20171;-60
2020/12/14 01:04:48;;;;;;;6.43;5.93;;;;;;;6.65;80.84;96059.66;5076171;28;20213;-60
2020/12/14 01:07:13;;;;;;;9.00;6.60;;;;;;;6.68;80.73;96054.00;5082133;28;20477;-60
2020/12/14 01:09:39;;;;;;;7.03;6.30;;;;;;;6.64;81.14;96053.63;5096250;28;20228;-61
2020/12/14 01:12:04;;;;;;;6.10;5.60;;;;;;;6.55;81.23;96060.09;5096237;28;20167;-60
2020/12/14 01:14:29;;;;;;;6.30;5.70;;;;;;;6.51;81.38;96055.50;5096066;28;20651;-61
2020/12/14 01:16:55;;;;;;;7.47;6.37;;;;;;;6.48;81.21;96063.75;5096026;28;20166;-61
2020/12/14 01:19:20;;;;;;;6.97;6.27;;;;;;;6.31;82.18;96058.19;5091300;28;20198;-61
2020/12/14 01:21:45;;;;;;;5.90;5.40;;;;;;;6.08;83.29;96052.66;5075414;28;20247;-61
2020/12/14 01:24:11;;;;;;;5.70;5.20;;;;;;;5.89;84.80;96045.66;5075458;28;20174;-60
2020/12/14 01:26:36;;;;;;;6.13;5.53;;;;;;;6.08;83.89;96056.06;5075241;28;20257;-61
2020/12/14 01:29:02;;;;;;;6.53;5.93;;;;;;;6.23;83.01;96050.59;5075377;28;20258;-60
2020/12/14 01:31:27;;;;;;;7.10;5.73;;;;;;;6.27;82.29;96048.38;5074303;28;20269;-60
2020/12/14 01:33:53;;;;;;;6.30;5.80;;;;;;;6.16;83.62;96036.75;5076646;28;20174;-60
2020/12/14 01:36:18;;;;;;;6.70;6.10;;;;;;;5.83;85.05;96034.28;5074830;28;20192;-61
2020/12/14 01:38:44;;;;;;;6.20;5.70;;;;;;;5.78;85.17;96035.84;5075364;28;20323;-60
2020/12/14 01:41:09;;;;;;;6.07;5.50;;;;;;;5.81;85.31;96038.06;5075548;28;20202;-61
2020/12/14 01:43:34;;;;;;;6.30;5.80;;;;;;;5.96;85.37;96041.25;5075235;28;20177;-61
2020/12/14 01:46:00;;;;;;;6.17;5.67;;;;;;;6.18;84.13;96043.38;5076343;28;20166;-60
2020/12/14 01:48:25;;;;;;;5.90;5.40;;;;;;;6.03;83.77;96042.03;5074938;28;20556;-60
2020/12/14 01:50:52;;;;;;;7.40;5.97;;;;;;;6.04;84.26;96046.25;5075320;28;20194;-61
2020/12/14 01:53:18;;;;;;;7.80;6.20;;;;;;;6.15;83.31;96041.19;5075272;28;20221;-61
2020/12/14 01:55:46;;;;;;;7.30;6.60;;;;;;;6.02;83.82;96041.22;5074989;28;20409;-61
2020/12/14 01:58:12;;;;;;;6.20;4.90;;;;;;;6.09;83.91;96043.81;5074343;28;20420;-61
2020/12/14 02:00:37;;;;;;;5.87;5.37;;;;;;;6.06;83.68;96055.47;5074933;28;20950;-60
2020/12/14 02:03:03;;;;;;;5.80;5.20;;;;;;;5.99;84.20;96057.28;5089689;28;20178;-61
2020/12/14 02:05:28;;;;;;;6.67;6.10;;;;;;;6.12;84.50;96049.41;5095236;28;20205;-61
2020/12/14 02:07:54;;;;;;;6.50;5.90;;;;;;;6.25;82.64;96051.19;5094742;28;20213;-61
2020/12/14 02:10:19;;;;;;;5.60;5.10;;;;;;;6.07;83.20;96049.22;5094795;28;20186;-60
2020/12/14 02:12:45;;;;;;;8.13;5.80;;;;;;;6.05;83.68;96035.59;5093738;28;20694;-60
2020/12/14 02:15:10;;;;;;;6.63;5.97;;;;;;;6.20;83.73;96032.75;5075371;28;20180;-60
2020/12/14 02:17:36;;;;;;;6.37;5.77;;;;;;;6.01;83.02;96026.59;5074375;28;20166;-60
2020/12/14 02:20:03;;;;;;;6.77;6.07;;;;;;;5.88;83.92;96034.47;5074542;28;20240;-61
2020/12/14 02:22:28;;;;;;;7.27;6.50;;;;;;;5.78;85.21;96035.84;5074375;28;20711;-61
2020/12/14 02:24:56;;;;;;;5.93;5.40;;;;;;;5.63;85.71;96038.69;5074597;28;20494;-60
2020/12/14 02:27:23;;;;;;;6.70;6.00;;;;;;;5.74;85.47;96035.44;5074917;28;20174;-60
2020/12/14 02:29:48;;;;;;;6.63;6.00;;;;;;;5.69;85.53;96037.84;5093425;28;20433;-61
2020/12/14 02:32:18;;;;;;;6.70;6.00;;;;;;;5.70;86.03;96033.47;5094613;28;20407;-61
2020/12/14 02:34:44;;;;;;;6.27;5.67;;;;;;;5.90;85.68;96021.22;5094747;28;20196;-61
2020/12/14 02:37:11;;;;;;;5.60;5.10;;;;;;;6.03;84.57;96021.97;5094162;28;20392;-61
2020/12/14 02:39:38;;;;;;;6.97;5.97;;;;;;;6.08;83.80;96023.97;5094337;28;20488;-60
2020/12/14 02:42:12;;;;;;;7.27;6.60;;;;;;;6.06;84.64;96015.53;5086201;28;20422;-61
2020/12/14 02:44:37;;;;;;;7.13;6.43;;;;;;;6.17;83.78;96014.91;5073265;28;20411;-61
2020/12/14 02:47:04;;;;;;;6.40;5.80;;;;;;;6.23;83.74;96021.91;5073656;28;20472;-60
2020/12/14 02:49:29;;;;;;;6.57;5.97;;;;;;;6.15;83.96;96016.91;5073748;28;20228;-61
2020/12/14 02:51:55;;;;;;;6.90;6.20;;;;;;;6.21;84.43;96021.31;5073896;28;20463;-60
2020/12/14 02:54:20;;;;;;;7.10;5.97;;;;;;;6.28;83.10;96006.44;5074012;28;20178;-60
2020/12/14 02:56:46;;;;;;;6.93;5.77;;;;;;;6.29;82.82;96002.81;5073629;28;20175;-60
2020/12/14 02:59:12;;;;;;;8.57;5.80;;;;;;;6.32;82.69;96006.81;5073755;28;20190;-60
2020/12/14 03:01:38;;;;;;;6.00;5.50;;;;;;;6.33;82.69;96001.41;5074842;28;20198;-61
2020/12/14 03:04:04;;;;;;;6.70;6.00;;;;;;;6.27;82.81;95991.00;5073441;28;20785;-61
2020/12/14 03:06:30;;;;;;;5.80;5.30;;;;;;;6.29;83.14;95986.38;5072810;28;20498;-61
2020/12/14 03:08:55;;;;;;;5.17;4.77;;;;;;;6.30;83.25;95985.34;5074043;28;20409;-61
2020/12/14 03:11:20;;;;;;;6.47;5.70;;;;;;;6.31;82.53;95972.09;5073838;28;20158;-61
2020/12/14 03:13:46;;;;;;;6.50;5.90;;;;;;;6.30;82.71;95967.09;5073868;28;20166;-61
2020/12/14 03:16:11;;;;;;;7.07;6.07;;;;;;;6.35;82.95;95969.88;5073896;28;20178;-61
2020/12/14 03:18:36;;;;;;;6.43;5.83;;;;;;;6.22;82.81;95971.56;5073318;28;20216;-60
2020/12/14 03:21:08;;;;;;;5.60;4.73;;;;;;;6.27;83.65;95977.97;5073117;28;20703;-60
2020/12/14 03:23:34;;;;;;;5.93;5.43;;;;;;;6.36;82.64;95977.47;5073389;28;20190;-60
2020/12/14 03:25:59;;;;;;;6.53;5.50;;;;;;;6.42;82.96;95973.25;5073301;28;20409;-61
2020/12/14 03:28:25;;;;;;;5.63;5.13;;;;;;;6.22;83.12;95971.56;5072983;28;20270;-61
2020/12/14 03:30:51;;;;;;;6.00;5.50;;;;;;;6.33;82.74;95961.44;5089693;28;20198;-61
2020/12/14 03:33:17;;;;;;;5.90;5.37;;;;;;;6.32;82.70;95965.09;5093835;28;20172;-61
2020/12/14 03:35:43;;;;;;;5.87;5.30;;;;;;;6.33;82.83;95966.66;5090042;28;20439;-60
2020/12/14 03:38:08;;;;;;;6.63;6.03;;;;;;;6.39;82.23;95965.84;5077515;28;20452;-59
2020/12/14 03:40:33;;;;;;;5.37;4.87;;;;;;;6.40;82.23;95968.25;5093321;28;20205;-61
2020/12/14 03:42:59;;;;;;;6.00;5.43;;;;;;;6.37;81.87;95975.69;5093845;28;20170;-61
2020/12/14 03:45:24;;;;;;;9.27;6.07;;;;;;;6.34;81.80;95976.91;5093528;28;20501;-60
2020/12/14 03:47:49;;;;;;;6.00;5.40;;;;;;;6.34;81.84;95976.13;5092999;28;20627;-61
2020/12/14 03:50:15;;;;;;;5.80;5.30;;;;;;;6.36;81.65;95982.69;5090764;28;20186;-61
2020/12/14 03:52:40;;;;;;;5.60;5.03;;;;;;;6.36;81.11;95984.53;5072899;28;20171;-61
2020/12/14 03:55:05;;;;;;;5.40;4.90;;;;;;;6.35;80.67;95982.91;5073206;28;20168;-61
2020/12/14 03:57:31;;;;;;;5.10;4.60;;;;;;;6.34;80.84;95991.75;5072683;28;20629;-61
2020/12/14 03:59:56;;;;;;;4.90;4.40;;;;;;;6.31;80.49;95987.75;5073088;28;20687;-60
2020/12/14 04:02:23;;;;;;;5.60;5.10;;;;;;;6.28;81.12;95984.75;5073517;28;20174;-61
2020/12/14 04:04:49;;;;;;;5.77;5.23;;;;;;;6.26;80.97;95984.97;5083074;28;20201;-61
2020/12/14 04:07:15;;;;;;;6.00;5.40;;;;;;;6.21;80.67;95980.38;5078955;28;20965;-60
2020/12/14 04:09:41;;;;;;;5.80;5.30;;;;;;;6.00;81.73;95970.25;5072916;28;20738;-61
2020/12/14 04:12:07;;;;;;;6.30;5.33;;;;;;;5.89;83.13;95967.47;5073317;28;20408;-60
2020/12/14 04:14:32;;;;;;;6.90;5.80;;;;;;;5.79;84.06;95970.50;5073268;28;20654;-60
2020/12/14 04:16:57;;;;;;;5.90;5.40;;;;;;;5.94;83.94;95976.25;5072605;28;20590;-61
2020/12/14 04:19:23;;;;;;;6.40;5.80;;;;;;;6.01;83.70;95979.69;5082769;28;20240;-61
2020/12/14 04:21:50;;;;;;;6.87;5.67;;;;;;;6.06;83.93;95986.88;5080595;28;20202;-60
2020/12/14 04:24:17;;;;;;;6.80;6.10;;;;;;;6.03;83.31;95989.91;5072885;28;20241;-60
2020/12/14 04:26:42;;;;;;;5.60;5.10;;;;;;;6.14;83.23;95990.03;5072487;28;20405;-61
2020/12/14 04:29:08;;;;;;;5.63;5.13;;;;;;;6.18;82.54;95986.00;5076995;28;20443;-60
2020/12/14 04:31:34;;;;;;;5.50;5.00;;;;;;;6.19;82.59;95995.44;5092281;28;20227;-61
2020/12/14 04:34:00;;;;;;;7.10;6.23;;;;;;;6.18;82.10;95991.22;5092324;28;20683;-60
2020/12/14 04:36:26;;;;;;;6.10;5.50;;;;;;;6.10;83.08;95998.50;5081045;28;20424;-61
2020/12/14 04:38:51;;;;;;;6.27;5.63;;;;;;;6.14;82.85;95995.25;5086431;28;20420;-61
2020/12/14 04:41:21;;;;;;;5.30;4.87;;;;;;;6.07;82.24;95991.06;5076644;28;20204;-61
2020/12/14 04:43:49;;;;;;;5.83;4.90;;;;;;;6.10;82.56;95991.47;5072744;28;20528;-61
2020/12/14 04:46:16;;;;;;;5.77;5.20;;;;;;;6.14;81.64;95984.03;5077387;28;20412;-61
2020/12/14 04:48:43;;;;;;;5.90;5.40;;;;;;;6.15;81.93;95991.66;5076194;28;20874;-59
2020/12/14 04:51:08;;;;;;;5.87;5.27;;;;;;;6.11;81.11;95985.25;5074740;28;20409;-60
2020/12/14 04:53:36;;;;;;;8.10;6.30;;;;;;;6.08;81.51;95983.06;5075970;28;20480;-60
2020/12/14 04:56:07;;;;;;;7.33;6.47;;;;;;;6.01;82.21;95986.69;5075867;28;20370;-61
2020/12/14 04:58:33;;;;;;;7.40;6.57;;;;;;;5.95;82.31;95988.31;5075475;28;20431;-61
2020/12/14 05:00:58;;;;;;;6.93;6.17;;;;;;;5.91;82.56;95991.53;5075532;28;20459;-61
2020/12/14 05:03:23;;;;;;;7.20;5.83;;;;;;;5.70;83.77;95989.97;5075497;28;20177;-61
2020/12/14 05:05:56;;;;;;;6.40;5.43;;;;;;;5.72;84.29;95982.75;5075617;28;20317;-61
2020/12/14 05:08:29;;;;;;;7.13;6.53;;;;;;;5.91;84.81;95983.69;5075233;28;20253;-60
2020/12/14 05:10:55;;;;;;;7.07;6.37;;;;;;;6.03;83.93;95982.84;5075734;28;20888;-61
2020/12/14 05:13:25;;;;;;;7.77;6.40;;;;;;;6.02;83.53;95983.06;5075683;28;20455;-61
2020/12/14 05:15:50;;;;;;;7.00;6.30;;;;;;;6.07;82.63;95972.81;5075721;28;20181;-61
2020/12/14 05:18:18;;;;;;;7.20;6.50;;;;;;;6.05;82.65;95978.22;5074986;28;20559;-61
2020/12/14 05:20:58;;;;;;;6.13;5.47;;;;;;;6.02;82.71;95980.44;5074612;28;20197;-60
2020/12/14 05:23:23;;;;;;;7.83;7.03;;;;;;;6.06;82.21;95979.03;5075585;28;20461;-60
2020/12/14 05:25:49;;;;;;;8.43;6.67;;;;;;;6.08;81.92;95977.03;5075506;28;20424;-61
2020/12/14 05:28:18;;;;;;;7.43;6.10;;;;;;;5.97;82.66;95978.47;5074935;28;20243;-62
2020/12/14 05:30:46;;;;;;;9.63;7.43;;;;;;;6.01;82.50;95978.88;5075232;28;20263;-60
2020/12/14 05:33:13;;;;;;;9.43;7.43;;;;;;;6.05;82.58;95983.44;5075472;28;20766;-61
2020/12/14 05:35:41;;;;;;;7.30;6.43;;;;;;;6.05;82.25;95983.44;5075108;28;20972;-61
2020/12/14 05:38:20;;;;;;;8.80;6.37;;;;;;;6.12;82.85;95986.06;5074560;28;20421;-62
2020/12/14 05:40:49;;;;;;;8.13;6.80;;;;;;;6.00;82.05;95983.28;5074584;28;20926;-61
2020/12/14 05:43:17;;;;;;;8.97;7.53;;;;;;;6.05;81.64;95980.84;5074851;28;20426;-61
2020/12/14 05:45:43;;;;;;;9.80;7.37;;;;;;;5.90;83.13;95988.13;5074849;28;20507;-61
2020/12/14 05:48:31;;;;;;;7.43;6.73;;;;;;;5.01;88.35;95991.44;5074543;28;20867;-61
2020/12/14 05:51:05;;;;;;;8.93;7.40;;;;;;;5.30;87.38;95988.41;5074461;28;20432;-61
2020/12/14 05:53:50;;;;;;;10.73;8.03;;;;;;;5.21;87.26;95990.44;5075194;28;20421;-61
2020/12/14 05:56:17;;;;;;;9.10;6.70;;;;;;;4.78;90.34;95993.63;5074109;28;20420;-61
2020/12/14 05:58:42;;;;;;;8.03;6.30;;;;;;;4.97;89.87;95998.84;5074018;28;20487;-61
2020/12/14 06:01:08;;;;;;;9.00;7.20;;;;;;;5.12;89.03;95996.84;5074477;28;20545;-61
2020/12/14 06:03:34;;;;;;;11.70;8.67;;;;;;;5.09;89.36;95991.25;5074648;28;20184;-61
2020/12/14 06:06:02;;;;;;;8.20;7.07;;;;;;;5.10;89.01;95995.44;5074494;28;20173;-61
2020/12/14 06:08:45;;;;;;;8.70;7.20;;;;;;;4.84;89.39;95990.22;5073928;28;20447;-61
2020/12/14 06:11:14;;;;;;;11.20;7.47;;;;;;;4.63;91.23;95993.00;5074911;28;20403;-61
2020/12/14 06:13:55;;;;;;;12.23;7.40;;;;;;;4.67;90.78;95989.81;5074507;28;20503;-61
2020/12/14 06:16:23;;;;;;;10.70;7.60;;;;;;;4.85;90.05;95991.84;5074022;28;20422;-61
2020/12/14 06:18:48;;;;;;;9.67;8.23;;;;;;;4.66;91.27;95988.19;5074383;28;20423;-61
2020/12/14 06:21:46;;;;;;;11.67;9.40;;;;;;;4.50;91.64;95991.19;5073579;28;20454;-60
2020/12/14 06:24:20;;;;;;;11.63;8.77;;;;;;;4.28;93.22;95991.50;5074529;28;20593;-60
2020/12/14 06:26:46;;;;;;;11.10;8.37;;;;;;;4.30;94.13;95992.91;5072156;28;20426;-61
2020/12/14 06:29:38;;;;;;;10.50;7.90;;;;;;;4.34;92.95;95988.13;5074272;28;20438;-60
2020/12/14 06:32:23;;;;;;;10.60;8.20;;;;;;;4.48;92.96;95989.75;5074101;28;20513;-61
2020/12/14 06:34:49;;;;;;;12.73;8.77;;;;;;;4.31;93.66;95989.34;5073916;28;20438;-61
2020/12/14 06:37:21;;;;;;;10.40;8.30;;;;;;;4.32;93.41;95993.53;5073735;28;20423;-60
2020/12/14 06:39:57;;;;;;;9.17;7.83;;;;;;;4.35;93.25;95995.72;5073929;28;20710;-61
2020/12/14 06:42:23;;;;;;;11.07;8.83;;;;;;;4.22;94.10;95993.91;5073891;28;20419;-61
2020/12/14 06:44:49;;;;;;;10.80;8.70;;;;;;;4.13;94.66;95995.06;5073916;28;20417;-61
2020/12/14 06:47:16;;;;;;;11.90;8.97;;;;;;;4.12;94.90;95995.25;5073139;28;20425;-60
2020/12/14 06:49:43;;;;;;;13.70;8.80;;;;;;;4.11;95.18;96001.47;5074063;28;20498;-61
2020/12/14 06:52:09;;;;;;;11.90;9.47;;;;;;;4.19;94.12;95991.69;5071794;28;20514;-60
2020/12/14 06:54:47;;;;;;;11.27;9.17;;;;;;;4.28;94.23;95994.09;5073467;28;20428;-61
2020/12/14 06:57:19;;;;;;;12.37;8.57;;;;;;;4.29;94.47;95995.72;5073600;28;20406;-61
2020/12/14 06:59:52;;;;;;;11.87;8.37;;;;;;;4.50;92.59;96000.78;5073403;28;20883;-61
2020/12/14 07:02:17;;;;;;;10.30;8.60;;;;;;;4.65;92.13;95998.81;5073522;28;20513;-61
2020/12/14 07:04:43;;;;;;;12.30;9.00;;;;;;;4.81;91.23;96001.03;5073454;28;20772;-61
2020/12/14 07:07:09;;;;;;;11.93;9.07;;;;;;;4.60;91.32;96004.59;5073097;28;20196;-60
2020/12/14 07:09:36;;;;;;;12.57;9.00;;;;;;;4.52;92.61;96006.56;5073292;28;20440;-61
2020/12/14 07:12:11;;;;;;;14.17;10.20;;;;;;;4.49;92.31;96006.97;5073620;28;20195;-60
2020/12/14 07:14:51;;;;;;;13.20;8.93;;;;;;;4.68;92.22;96014.00;5073302;28;20434;-61
2020/12/14 07:17:21;;;;;;;12.27;9.50;;;;;;;4.79;91.06;96013.44;5072918;28;20516;-61
2020/12/14 07:19:47;;;;;;;16.63;10.50;;;;;;;4.95;89.63;96010.44;5073180;28;20436;-61
2020/12/14 07:22:18;;;;;;;12.03;8.50;;;;;;;4.79;90.83;96021.25;5073238;28;20430;-61
2020/12/14 07:24:58;;;;;;;12.57;9.50;;;;;;;4.93;90.43;96017.66;5073069;28;20427;-61
2020/12/14 07:27:23;;;;;;;13.30;8.93;;;;;;;4.78;90.22;96017.81;5072529;28;20522;-60
2020/12/14 07:29:48;;;;;;;12.50;9.40;;;;;;;4.85;90.82;96012.66;5073137;28;20516;-61
2020/12/14 07:32:14;;;;;;;12.27;9.70;;;;;;;4.92;89.82;96021.25;5073425;28;20171;-60
2020/12/14 07:34:39;;;;;;;12.97;9.60;;;;;;;4.59;90.94;96020.41;5073661;28;20237;-60
2020/12/14 07:37:04;;;;;;;14.60;10.33;;;;;;;4.61;91.82;96010.59;5072402;28;20189;-61
2020/12/14 07:39:30;;;;;;;12.00;9.57;;;;;;;4.74;90.35;96024.44;5073129;28;20241;-61
2020/12/14 07:41:55;;;;;;;14.20;10.07;;;;;;;4.55;91.78;96025.19;5072941;28;20243;-61
2020/12/14 07:44:21;;;;;;;11.50;9.03;;;;;;;4.91;90.90;96033.47;5072579;28;20217;-61
2020/12/14 07:46:46;;;;;;;11.83;8.87;;;;;;;4.92;90.63;96023.88;5072372;28;20248;-61
2020/12/14 07:49:13;;;;;;;13.27;9.20;;;;;;;5.17;89.83;96027.47;5072977;28;20196;-60
2020/12/14 07:51:41;;;;;;;12.83;10.37;;;;;;;5.38;88.64;96021.28;5072559;28;20250;-62
2020/12/14 07:54:11;;;;;;;14.07;10.70;;;;;;;5.40;87.15;96020.06;5073172;28;20414;-60
2020/12/14 07:56:59;;;;;;;12.13;10.83;;;;;;;5.62;87.07;96023.22;5072789;28;20416;-61
2020/12/14 07:59:26;;;;;;;12.80;10.30;;;;;;;5.65;86.34;96023.63;5072714;28;20450;-61
2020/12/14 08:01:52;;;;;;;13.77;8.83;;;;;;;5.75;86.49;96029.25;5072823;28;20452;-60
2020/12/14 08:04:36;;;;;;;11.00;9.20;;;;;;;6.01;86.30;96021.41;5072403;28;20979;-61
2020/12/14 08:07:02;;;;;;;10.57;9.10;;;;;;;6.16;84.98;96034.16;5071805;28;20428;-61
2020/12/14 08:09:31;;;;;;;12.20;8.90;;;;;;;5.80;84.78;96034.63;5072287;28;20545;-60
2020/12/14 08:11:57;;;;;;;12.13;9.10;;;;;;;5.60;85.79;96028.66;5071235;28;20499;-60
2020/12/14 08:14:23;;;;;;;13.80;9.20;;;;;;;5.64;86.00;96029.03;5073277;28;20412;-60
2020/12/14 08:16:49;;;;;;;9.93;8.33;;;;;;;5.67;85.89;96029.44;5072699;28;20419;-61
2020/12/14 08:19:19;;;;;;;11.03;9.10;;;;;;;5.52;86.99;96025.47;5072129;28;20527;-61
2020/12/14 08:22:05;;;;;;;11.10;9.10;;;;;;;5.49;87.11;96025.88;5073283;28;20513;-61
2020/12/14 08:24:31;;;;;;;14.67;8.63;;;;;;;5.47;87.83;96017.47;5076770;28;20800;-60
2020/12/14 08:26:59;;;;;;;10.20;8.50;;;;;;;5.28;88.51;96023.47;5076003;28;20419;-61
2020/12/14 08:29:27;;;;;;;11.37;8.20;;;;;;;5.47;86.75;96023.44;5076373;28;20441;-61
2020/12/14 08:31:55;;;;;;;12.37;9.13;;;;;;;5.35;86.63;96025.06;5076682;28;20592;-60
2020/12/14 08:34:35;;;;;;;11.27;8.03;;;;;;;5.49;86.88;96021.44;5076335;28;20464;-60
2020/12/14 08:37:03;;;;;;;9.30;8.40;;;;;;;5.55;87.07;96025.06;5076236;28;20410;-60
2020/12/14 08:39:29;;;;;;;8.83;8.03;;;;;;;5.66;86.52;96027.84;5076328;28;20422;-59
2020/12/14 08:42:06;;;;;;;9.50;8.47;;;;;;;5.73;86.42;96028.63;5076198;28;20456;-60
2020/12/14 08:44:32;;;;;;;9.87;8.20;;;;;;;5.42;87.57;96027.69;5076421;28;20219;-60
2020/12/14 08:46:59;;;;;;;9.57;8.27;;;;;;;5.73;86.03;96031.25;5076096;28;20403;-59
2020/12/14 08:49:24;;;;;;;9.30;8.17;;;;;;;5.69;86.59;96035.25;5075596;28;20463;-59
2020/12/14 08:51:49;;;;;;;11.80;8.97;;;;;;;5.91;85.35;96031.44;5076397;28;20396;-60
2020/12/14 08:54:17;;;;;;;10.90;8.93;;;;;;;5.99;85.39;96038.22;5076366;28;20177;-60
2020/12/14 08:56:44;;;;;;;10.50;7.87;;;;;;;5.91;85.46;96038.44;5075202;28;20178;-60
2020/12/14 08:59:16;;;;;;;11.00;8.27;;;;;;;5.96;85.61;96044.66;5075973;28;20436;-59
2020/12/14 09:02:02;;;;;;;10.60;9.13;;;;;;;5.73;86.65;96049.50;5076133;28;20486;-59
2020/12/14 09:04:35;;;;;;;10.53;8.70;;;;;;;5.70;86.06;96055.13;5075409;28;20424;-60
2020/12/14 09:07:00;;;;;;;11.70;8.40;;;;;;;5.70;87.11;96049.91;5075409;28;20401;-59
2020/12/14 09:09:38;;;;;;;9.07;8.17;;;;;;;5.90;86.56;96053.31;5075834;28;20792;-60
2020/12/14 09:12:11;;;;;;;9.70;8.07;;;;;;;6.14;84.67;96046.63;5075801;28;20205;-59
2020/12/14 09:14:37;;;;;;;8.33;7.37;;;;;;;6.51;83.35;96051.09;5073375;28;20412;-60
2020/12/14 09:17:04;;;;;;;9.30;7.03;;;;;;;6.79;80.57;96055.97;5072142;28;20829;-60
2020/12/14 09:19:32;;;;;;;8.20;6.83;;;;;;;6.83;80.79;96054.53;5072221;28;20683;-59
2020/12/14 09:21:58;;;;;;;9.23;7.50;;;;;;;7.46;78.84;96050.06;5071847;28;20458;-60
2020/12/14 09:24:24;;;;;;;9.70;7.43;;;;;;;7.83;76.55;96054.34;5071828;28;20521;-60
2020/12/14 09:26:51;;;;;;;6.57;5.93;;;;;;;7.91;75.54;96051.47;5070973;28;20194;-60
2020/12/14 09:29:17;;;;;;;7.77;6.97;;;;;;;8.20;75.47;96054.19;5072110;28;20437;-60
2020/12/14 09:31:54;;;;;;;7.67;6.53;;;;;;;8.41;73.33;96047.72;5071948;28;20429;-60
2020/12/14 09:34:21;;;;;;;7.60;6.20;;;;;;;8.84;72.57;96053.63;5071401;28;20412;-60
2020/12/14 09:36:50;;;;;;;10.63;7.07;;;;;;;8.97;71.23;96056.06;5071320;28;20427;-59
2020/12/14 09:39:15;;;;;;;7.57;6.87;;;;;;;8.91;71.09;96056.16;5071695;28;20786;-60
2020/12/14 09:41:41;;;;;;;7.87;7.07;;;;;;;8.99;71.08;96053.22;5071567;28;20464;-60
2020/12/14 09:44:07;;;;;;;7.60;6.43;;;;;;;8.82;71.14;96055.66;5073047;28;20195;-60
2020/12/14 09:46:32;;;;;;;6.27;5.77;;;;;;;8.35;72.42;96060.91;5074573;28;20182;-59
2020/12/14 09:48:58;;;;;;;6.67;5.97;;;;;;;8.54;73.18;96060.66;5074584;28;20536;-59
2020/12/14 09:51:27;;;;;;;6.27;5.67;;;;;;;8.46;72.39;96060.19;5075081;28;20616;-59
2020/12/14 09:53:54;;;;;;;7.27;6.57;;;;;;;8.69;71.67;96062.91;5075330;28;20223;-60
2020/12/14 09:56:20;;;;;;;8.37;6.67;;;;;;;8.91;71.45;96058.78;5074583;28;20420;-58
2020/12/14 09:58:46;;;;;;;6.33;5.73;;;;;;;9.05;70.09;96053.13;5075141;28;20419;-58
2020/12/14 10:01:12;;;;;;;6.70;6.10;;;;;;;9.02;69.29;96050.94;5074909;28;20649;-61
2020/12/14 10:03:37;;;;;;;6.80;6.20;;;;;;;8.94;69.70;96053.91;5074453;28;20424;-61
2020/12/14 10:06:03;;;;;;;6.43;5.83;;;;;;;8.98;69.36;96056.88;5075274;28;20417;-59
2020/12/14 10:08:28;;;;;;;6.23;5.63;;;;;;;9.20;68.86;96052.72;5074296;28;20297;-62
2020/12/14 10:10:56;;;;;;;5.80;5.30;;;;;;;9.37;68.34;96048.41;5073472;28;20240;-63
2020/12/14 10:13:25;;;;;;;6.90;5.67;;;;;;;9.35;68.92;96048.66;5073590;28;20176;-67
2020/12/14 10:15:51;;;;;;;5.87;5.37;;;;;;;9.55;69.29;96048.31;5074696;28;20446;-67
2020/12/14 10:18:16;;;;;;;7.57;6.07;;;;;;;9.35;68.58;96046.03;5073879;28;20423;-64
2020/12/14 10:20:42;;;;;;;7.03;5.87;;;;;;;9.17;68.74;96047.91;5074453;28;20453;-63
2020/12/14 10:23:08;;;;;;;7.00;6.00;;;;;;;9.08;69.57;96039.59;5073427;28;20545;-61
2020/12/14 10:25:35;;;;;;;5.70;5.20;;;;;;;9.19;70.40;96035.38;5079487;28;20185;-66
2020/12/14 10:28:01;;;;;;;6.07;5.47;;;;;;;9.47;69.51;96035.56;5073525;28;20436;-63
2020/12/14 10:30:26;;;;;;;6.70;5.87;;;;;;;9.82;70.15;96044.22;5074152;28;20777;-67
2020/12/14 10:32:51;;;;;;;6.40;5.80;;;;;;;10.09;70.76;96045.38;5063652;28;20176;-59
2020/12/14 10:35:17;;;;;;;7.70;5.97;;;;;;;10.34;69.36;96039.88;5054524;28;20251;-59
2020/12/14 10:37:43;;;;;;;7.93;6.10;;;;;;;10.55;68.60;96041.06;5062981;28;20184;-63
2020/12/14 10:40:08;;;;;;;6.63;6.03;;;;;;;10.64;68.92;96035.22;5074008;28;20985;-66
2020/12/14 10:42:34;;;;;;;7.23;6.53;;;;;;;10.79;67.97;96032.91;5074024;28;20196;-67
2020/12/14 10:45:00;;;;;;;13.43;6.97;;;;;;;10.96;67.57;96030.31;5073269;28;20242;-63
2020/12/14 10:47:27;;;;;;;7.90;7.20;;;;;;;11.12;67.67;96032.19;5073184;28;20432;-59
2020/12/14 10:49:53;;;;;;;8.57;6.97;;;;;;;11.24;67.55;96023.19;5073990;28;20473;-58
2020/12/14 10:52:18;;;;;;;7.77;7.07;;;;;;;11.31;67.28;96023.81;5073380;28;20427;-61
2020/12/14 10:54:44;;;;;;;8.23;7.27;;;;;;;11.39;67.13;96022.63;5074022;28;20671;-61
2020/12/14 10:57:09;;;;;;;6.87;6.27;;;;;;;11.38;66.95;96027.09;5073412;28;20269;-60
2020/12/14 10:59:34;;;;;;;7.43;6.83;;;;;;;10.97;66.45;96018.75;5073804;28;20200;-62
2020/12/14 11:02:00;;;;;;;7.83;6.97;;;;;;;11.00;66.81;96023.53;5073374;28;20744;-61
2020/12/14 11:04:25;;;;;;;8.33;7.37;;;;;;;11.21;66.42;96021.00;5073469;28;20215;-59
2020/12/14 11:06:51;;;;;;;9.00;7.20;;;;;;;11.32;66.33;96022.78;5073102;28;20558;-60
2020/12/14 11:09:16;;;;;;;8.60;6.97;;;;;;;11.15;65.99;96018.53;5073318;28;20258;-62
2020/12/14 11:11:41;;;;;;;11.03;8.30;;;;;;;11.22;66.13;96014.72;5073248;28;20181;-66
2020/12/14 11:14:07;;;;;;;8.00;7.10;;;;;;;11.36;66.03;96007.31;5073483;28;20273;-64
2020/12/14 11:16:37;;;;;;;7.37;6.67;;;;;;;11.38;66.50;96007.88;5073081;28;20196;-56
2020/12/14 11:19:03;;;;;;;7.97;6.40;;;;;;;11.35;65.36;96011.00;5073647;28;20204;-65
2020/12/14 11:21:28;;;;;;;8.63;6.60;;;;;;;11.32;66.08;96007.00;5069302;28;20476;-64
2020/12/14 11:23:53;;;;;;;7.07;6.40;;;;;;;11.40;65.95;95987.38;5060705;28;20269;-68
2020/12/14 11:26:19;;;;;;;6.40;5.63;;;;;;;11.36;65.36;96002.84;5063788;28;20205;-70
2020/12/14 11:28:44;;;;;;;7.23;6.53;;;;;;;11.21;64.78;96001.81;5072579;28;20185;-70
2020/12/14 11:31:09;;;;;;;7.57;6.80;;;;;;;11.16;65.87;96002.53;5072888;28;20564;-69
2020/12/14 11:33:35;;;;;;;7.23;6.20;;;;;;;11.25;66.21;96002.94;5073579;28;20183;-66
2020/12/14 11:36:02;;;;;;;6.80;6.10;;;;;;;11.05;66.14;95999.97;5073416;28;20198;-69
2020/12/14 11:38:27;;;;;;;6.90;5.60;;;;;;;11.28;65.21;95994.56;5073015;28;20201;-71
2020/12/14 11:40:52;;;;;;;5.77;5.17;;;;;;;11.25;64.88;95995.06;5072758;28;20495;-72